sensor_id;sensor_type;location;lat;lon;timestamp;pressure;altitude;pressure_sealevel;temperature
43802;BMP280;29429;51.074;13.764;2023-07-20T00:00:25;99568.56;;;18.78
43802;BMP280;29429;51.074;13.764;2023-07-20T00:02:56;99568.28;;;18.74
43802;BMP280;29429;51.074;13.764;2023-07-20T00:05:37;99565.03;;;18.72
43802;BMP280;29429;51.074;13.764;2023-07-20T00:08:05;99566.91;;;18.72
43802;BMP280;29429;51.074;13.764;2023-07-20T00:10:32;99576.97;;;18.81
43802;BMP280;29429;51.074;13.764;2023-07-20T00:13:00;99572.16;;;18.89
43802;BMP280;29429;51.074;13.764;2023-07-20T00:15:27;99571.84;;;18.85
43802;BMP280;29429;51.074;13.764;2023-07-20T00:17:54;99576.72;;;18.88
43802;BMP280;29429;51.074;13.764;2023-07-20T00:20:24;99571.31;;;18.88
43802;BMP280;29429;51.074;13.764;2023-07-20T00:22:52;99555.69;;;18.90
43802;BMP280;29429;51.074;13.764;2023-07-20T00:25:19;99555.69;;;18.90
43802;BMP280;29429;51.074;13.764;2023-07-20T00:27:47;99552.41;;;18.88
43802;BMP280;29429;51.074;13.764;2023-07-20T00:30:14;99547.56;;;18.90
43802;BMP280;29429;51.074;13.764;2023-07-20T00:32:43;99558.94;;;18.92
43802;BMP280;29429;51.074;13.764;2023-07-20T00:35:11;99552.97;;;18.90
43802;BMP280;29429;51.074;13.764;2023-07-20T00:37:39;99558.63;;;18.89
43802;BMP280;29429;51.074;13.764;2023-07-20T00:40:07;99565.66;;;18.90
43802;BMP280;29429;51.074;13.764;2023-07-20T00:42:35;99565.94;;;18.93
43802;BMP280;29429;51.074;13.764;2023-07-20T00:45:03;99578.38;;;18.94
43802;BMP280;29429;51.074;13.764;2023-07-20T00:47:30;99581.38;;;18.98
43802;BMP280;29429;51.074;13.764;2023-07-20T00:49:59;99577.31;;;18.95
43802;BMP280;29429;51.074;13.764;2023-07-20T00:52:28;99572.16;;;18.94
43802;BMP280;29429;51.074;13.764;2023-07-20T00:54:56;99578.13;;;18.96
43802;BMP280;29429;51.074;13.764;2023-07-20T00:57:24;99584.34;;;19.01
43802;BMP280;29429;51.074;13.764;2023-07-20T00:59:53;99576.25;;;19.06
43802;BMP280;29429;51.074;13.764;2023-07-20T01:02:21;99569.78;;;19.02
43802;BMP280;29429;51.074;13.764;2023-07-20T01:04:48;99574.88;;;18.99
43802;BMP280;29429;51.074;13.764;2023-07-20T01:07:31;99576.47;;;18.90
43802;BMP280;29429;51.074;13.764;2023-07-20T01:10:20;99575.16;;;18.92
43802;BMP280;29429;51.074;13.764;2023-07-20T01:12:53;99563.50;;;18.92
43802;BMP280;29429;51.074;13.764;2023-07-20T01:15:22;99573.50;;;18.91
43802;BMP280;29429;51.074;13.764;2023-07-20T01:17:49;99571.91;;;18.90
43802;BMP280;29429;51.074;13.764;2023-07-20T01:20:19;99575.16;;;18.92
43802;BMP280;29429;51.074;13.764;2023-07-20T01:26:08;99583.53;;;18.96
43802;BMP280;29429;51.074;13.764;2023-07-20T01:31:25;99593.28;;;18.97
43802;BMP280;29429;51.074;13.764;2023-07-20T01:33:57;99590.03;;;18.95
43802;BMP280;29429;51.074;13.764;2023-07-20T01:36:29;99584.63;;;18.95
43802;BMP280;29429;51.074;13.764;2023-07-20T01:38:56;99594.59;;;18.89
43802;BMP280;29429;51.074;13.764;2023-07-20T01:41:24;99592.09;;;18.82
43802;BMP280;29429;51.074;13.764;2023-07-20T01:43:52;99587.50;;;18.78
43802;BMP280;29429;51.074;13.764;2023-07-20T01:46:19;99584.50;;;18.74
43802;BMP280;29429;51.074;13.764;2023-07-20T01:48:47;99592.88;;;18.73
43802;BMP280;29429;51.074;13.764;2023-07-20T01:51:14;99590.97;;;18.68
43802;BMP280;29429;51.074;13.764;2023-07-20T01:53:42;99583.34;;;18.60
43802;BMP280;29429;51.074;13.764;2023-07-20T01:56:09;99586.53;;;18.52
43802;BMP280;29429;51.074;13.764;2023-07-20T01:58:39;99587.31;;;18.48
43802;BMP280;29429;51.074;13.764;2023-07-20T02:01:06;99593.72;;;18.42
43802;BMP280;29429;51.074;13.764;2023-07-20T02:03:34;99587.19;;;18.38
43802;BMP280;29429;51.074;13.764;2023-07-20T02:06:01;99593.19;;;18.40
43802;BMP280;29429;51.074;13.764;2023-07-20T02:08:29;99582.09;;;18.41
43802;BMP280;29429;51.074;13.764;2023-07-20T02:10:57;99588.06;;;18.43
43802;BMP280;29429;51.074;13.764;2023-07-20T02:13:24;99585.06;;;18.40
43802;BMP280;29429;51.074;13.764;2023-07-20T02:15:51;99589.38;;;18.41
43802;BMP280;29429;51.074;13.764;2023-07-20T02:18:21;99583.47;;;18.44
43802;BMP280;29429;51.074;13.764;2023-07-20T02:20:48;99584.53;;;18.43
43802;BMP280;29429;51.074;13.764;2023-07-20T02:23:16;99585.34;;;18.43
43802;BMP280;29429;51.074;13.764;2023-07-20T02:25:43;99584.81;;;18.41
43802;BMP280;29429;51.074;13.764;2023-07-20T02:28:13;99586.13;;;18.39
43802;BMP280;29429;51.074;13.764;2023-07-20T02:30:41;99582.88;;;18.37
43802;BMP280;29429;51.074;13.764;2023-07-20T02:33:08;99588.50;;;18.30
43802;BMP280;29429;51.074;13.764;2023-07-20T02:35:36;99596.34;;;18.32
43802;BMP280;29429;51.074;13.764;2023-07-20T02:38:03;99594.72;;;18.31
43802;BMP280;29429;51.074;13.764;2023-07-20T02:40:31;99598.25;;;18.31
43802;BMP280;29429;51.074;13.764;2023-07-20T02:42:58;99592.56;;;18.33
43802;BMP280;29429;51.074;13.764;2023-07-20T02:45:26;99598.47;;;18.30
43802;BMP280;29429;51.074;13.764;2023-07-20T02:47:53;99593.31;;;18.23
43802;BMP280;29429;51.074;13.764;2023-07-20T02:50:21;99603.81;;;18.19
43802;BMP280;29429;51.074;13.764;2023-07-20T02:52:49;99600.28;;;18.19
43802;BMP280;29429;51.074;13.764;2023-07-20T02:55:17;99605.97;;;18.17
43802;BMP280;29429;51.074;13.764;2023-07-20T02:57:44;99603.53;;;18.16
43802;BMP280;29429;51.074;13.764;2023-07-20T03:00:12;99605.97;;;18.17
43802;BMP280;29429;51.074;13.764;2023-07-20T03:02:43;99614.06;;;18.17
43802;BMP280;29429;51.074;13.764;2023-07-20T03:05:11;99608.66;;;18.17
43802;BMP280;29429;51.074;13.764;2023-07-20T03:07:38;99614.03;;;18.12
43802;BMP280;29429;51.074;13.764;2023-07-20T03:10:06;99618.28;;;18.08
43802;BMP280;29429;51.074;13.764;2023-07-20T03:12:36;99618.28;;;18.08
43802;BMP280;29429;51.074;13.764;2023-07-20T03:15:04;99623.13;;;18.06
43802;BMP280;29429;51.074;13.764;2023-07-20T03:17:32;99618.25;;;18.03
43802;BMP280;29429;51.074;13.764;2023-07-20T03:20:00;99626.06;;;18.00
43802;BMP280;29429;51.074;13.764;2023-07-20T03:22:29;99619.03;;;17.99
43802;BMP280;29429;51.074;13.764;2023-07-20T03:24:56;99618.13;;;17.88
43802;BMP280;29429;51.074;13.764;2023-07-20T03:27:24;99632.66;;;17.87
43802;BMP280;29429;51.074;13.764;2023-07-20T03:29:52;99623.00;;;17.91
43802;BMP280;29429;51.074;13.764;2023-07-20T03:32:19;99629.47;;;17.90
43802;BMP280;29429;51.074;13.764;2023-07-20T03:34:47;99623.00;;;17.91
43802;BMP280;29429;51.074;13.764;2023-07-20T03:37:14;99627.91;;;17.94
43802;BMP280;29429;51.074;13.764;2023-07-20T03:39:42;99628.94;;;17.93
43802;BMP280;29429;51.074;13.764;2023-07-20T03:42:09;99631.16;;;17.96
43802;BMP280;29429;51.074;13.764;2023-07-20T03:44:36;99629.00;;;17.98
43802;BMP280;29429;51.074;13.764;2023-07-20T03:47:04;99628.50;;;18.01
43802;BMP280;29429;51.074;13.764;2023-07-20T03:49:32;99632.84;;;18.02
43802;BMP280;29429;51.074;13.764;2023-07-20T03:52:00;99620.94;;;18.03
43802;BMP280;29429;51.074;13.764;2023-07-20T03:54:27;99625.06;;;18.11
43802;BMP280;29429;51.074;13.764;2023-07-20T03:56:55;99627.53;;;18.12
43802;BMP280;29429;51.074;13.764;2023-07-20T03:59:22;99632.38;;;18.10
43802;BMP280;29429;51.074;13.764;2023-07-20T04:01:50;99627.53;;;18.12
43802;BMP280;29429;51.074;13.764;2023-07-20T04:04:18;99627.56;;;18.17
43802;BMP280;29429;51.074;13.764;2023-07-20T04:06:46;99636.53;;;18.23
43802;BMP280;29429;51.074;13.764;2023-07-20T04:09:13;99628.16;;;18.24
43802;BMP280;29429;51.074;13.764;2023-07-20T04:11:41;99635.19;;;18.25
43802;BMP280;29429;51.074;13.764;2023-07-20T04:14:08;99636.84;;;18.27
43802;BMP280;29429;51.074;13.764;2023-07-20T04:16:36;99641.69;;;18.30
43802;BMP280;29429;51.074;13.764;2023-07-20T04:19:04;99639.59;;;18.37
43802;BMP280;29429;51.074;13.764;2023-07-20T04:21:32;99643.94;;;18.43
43802;BMP280;29429;51.074;13.764;2023-07-20T04:23:59;99643.00;;;18.54
43802;BMP280;29429;51.074;13.764;2023-07-20T04:26:27;99629.00;;;18.62
43802;BMP280;29429;51.074;13.764;2023-07-20T04:28:54;99641.78;;;18.71
43802;BMP280;29429;51.074;13.764;2023-07-20T04:31:32;99641.25;;;18.74
43802;BMP280;29429;51.074;13.764;2023-07-20T04:34:01;99638.53;;;18.74
43802;BMP280;29429;51.074;13.764;2023-07-20T04:36:29;99643.69;;;18.76
43802;BMP280;29429;51.074;13.764;2023-07-20T04:38:57;99637.78;;;18.79
43802;BMP280;29429;51.074;13.764;2023-07-20T04:41:25;99638.84;;;18.78
43802;BMP280;29429;51.074;13.764;2023-07-20T04:43:55;99638.78;;;18.68
43802;BMP280;29429;51.074;13.764;2023-07-20T04:46:27;99638.00;;;18.72
43802;BMP280;29429;51.074;13.764;2023-07-20T04:48:55;99632.34;;;18.74
43802;BMP280;29429;51.074;13.764;2023-07-20T04:51:23;99644.25;;;18.78
43802;BMP280;29429;51.074;13.764;2023-07-20T04:53:54;99647.47;;;18.75
43802;BMP280;29429;51.074;13.764;2023-07-20T04:56:21;99647.50;;;18.80
43802;BMP280;29429;51.074;13.764;2023-07-20T04:58:52;99637.81;;;18.84
43802;BMP280;29429;51.074;13.764;2023-07-20T05:01:19;99641.56;;;18.83
43802;BMP280;29429;51.074;13.764;2023-07-20T05:03:47;99643.22;;;18.84
43802;BMP280;29429;51.074;13.764;2023-07-20T05:06:15;99649.72;;;18.88
43802;BMP280;29429;51.074;13.764;2023-07-20T05:08:42;99651.63;;;18.88
43802;BMP280;29429;51.074;13.764;2023-07-20T05:11:10;99652.16;;;18.90
43802;BMP280;29429;51.074;13.764;2023-07-20T05:13:38;99648.97;;;18.98
43802;BMP280;29429;51.074;13.764;2023-07-20T05:16:05;99649.00;;;19.03
43802;BMP280;29429;51.074;13.764;2023-07-20T05:18:33;99647.16;;;19.13
43802;BMP280;29429;51.074;13.764;2023-07-20T05:21:01;99647.72;;;19.20
43802;BMP280;29429;51.074;13.764;2023-07-20T05:23:28;99647.22;;;19.28
43802;BMP280;29429;51.074;13.764;2023-07-20T05:25:57;99644.53;;;19.33
43802;BMP280;29429;51.074;13.764;2023-07-20T05:28:25;99645.03;;;19.25
43802;BMP280;29429;51.074;13.764;2023-07-20T05:30:53;99645.63;;;19.32
43802;BMP280;29429;51.074;13.764;2023-07-20T05:33:21;99650.00;;;19.38
43802;BMP280;29429;51.074;13.764;2023-07-20T05:35:49;99642.19;;;19.52
43802;BMP280;29429;51.074;13.764;2023-07-20T05:38:16;99648.47;;;19.68
43802;BMP280;29429;51.074;13.764;2023-07-20T05:40:45;99642.56;;;19.81
43802;BMP280;29429;51.074;13.764;2023-07-20T05:43:12;99640.34;;;19.68
43802;BMP280;29429;51.074;13.764;2023-07-20T05:45:43;99646.88;;;19.77
43802;BMP280;29429;51.074;13.764;2023-07-20T05:48:12;99645.56;;;19.89
43802;BMP280;29429;51.074;13.764;2023-07-20T05:50:43;99647.44;;;19.94
43802;BMP280;29429;51.074;13.764;2023-07-20T05:53:12;99646.91;;;19.82
43802;BMP280;29429;51.074;13.764;2023-07-20T05:55:39;99656.59;;;19.73
43802;BMP280;29429;51.074;13.764;2023-07-20T05:58:07;99650.91;;;19.64
43802;BMP280;29429;51.074;13.764;2023-07-20T06:00:35;99662.78;;;19.53
43802;BMP280;29429;51.074;13.764;2023-07-20T06:03:02;99665.19;;;19.50
43802;BMP280;29429;51.074;13.764;2023-07-20T06:05:30;99657.09;;;19.55
43802;BMP280;29429;51.074;13.764;2023-07-20T06:07:58;99657.63;;;19.57
43802;BMP280;29429;51.074;13.764;2023-07-20T06:10:27;99657.34;;;19.43
43802;BMP280;29429;51.074;13.764;2023-07-20T06:12:55;99657.59;;;19.47
43802;BMP280;29429;51.074;13.764;2023-07-20T06:15:28;99655.41;;;19.38
43802;BMP280;29429;51.074;13.764;2023-07-20T06:17:56;99666.97;;;19.29
43802;BMP280;29429;51.074;13.764;2023-07-20T06:20:25;99660.75;;;19.28
43802;BMP280;29429;51.074;13.764;2023-07-20T06:22:53;99666.69;;;19.25
43802;BMP280;29429;51.074;13.764;2023-07-20T06:25:20;99676.19;;;19.33
43802;BMP280;29429;51.074;13.764;2023-07-20T06:27:49;99670.06;;;19.48
43802;BMP280;29429;51.074;13.764;2023-07-20T06:30:19;99678.22;;;19.58
43802;BMP280;29429;51.074;13.764;2023-07-20T06:32:47;99681.53;;;19.75
43802;BMP280;29429;51.074;13.764;2023-07-20T06:35:16;99675.03;;;19.86
43802;BMP280;29429;51.074;13.764;2023-07-20T06:37:44;99663.16;;;19.97
43802;BMP280;29429;51.074;13.764;2023-07-20T06:40:12;99675.88;;;19.96
43802;BMP280;29429;51.074;13.764;2023-07-20T06:42:42;99678.03;;;19.89
43802;BMP280;29429;51.074;13.764;2023-07-20T06:45:12;99678.84;;;19.80
43802;BMP280;29429;51.074;13.764;2023-07-20T06:47:40;99689.53;;;19.50
43802;BMP280;29429;51.074;13.764;2023-07-20T06:50:08;99690.59;;;19.43
43802;BMP280;29429;51.074;13.764;2023-07-20T06:52:36;99694.03;;;19.29
43802;BMP280;29429;51.074;13.764;2023-07-20T06:55:05;99692.63;;;19.21
43802;BMP280;29429;51.074;13.764;2023-07-20T06:57:34;99694.03;;;19.29
43802;BMP280;29429;51.074;13.764;2023-07-20T07:00:01;99705.75;;;19.39
43802;BMP280;29429;51.074;13.764;2023-07-20T07:02:28;99705.75;;;19.44
43802;BMP280;29429;51.074;13.764;2023-07-20T07:04:56;99705.25;;;19.53
43802;BMP280;29429;51.074;13.764;2023-07-20T07:07:26;99701.72;;;19.52
43802;BMP280;29429;51.074;13.764;2023-07-20T07:09:54;99702.25;;;19.49
43802;BMP280;29429;51.074;13.764;2023-07-20T07:12:22;99709.13;;;19.67
43802;BMP280;29429;51.074;13.764;2023-07-20T07:14:49;99694.25;;;19.79
43802;BMP280;29429;51.074;13.764;2023-07-20T07:17:17;99695.41;;;19.93
43802;BMP280;29429;51.074;13.764;2023-07-20T07:19:46;99699.19;;;20.13
43802;BMP280;29429;51.074;13.764;2023-07-20T07:22:16;99699.00;;;20.29
43802;BMP280;29429;51.074;13.764;2023-07-20T07:24:44;99700.09;;;20.43
43802;BMP280;29429;51.074;13.764;2023-07-20T07:27:11;99696.03;;;20.66
43802;BMP280;29429;51.074;13.764;2023-07-20T07:29:39;99700.66;;;20.81
43802;BMP280;29429;51.074;13.764;2023-07-20T07:32:07;99692.75;;;20.84
43802;BMP280;29429;51.074;13.764;2023-07-20T07:34:34;99698.19;;;21.09
43802;BMP280;29429;51.074;13.764;2023-07-20T07:37:02;99695.94;;;21.27
43802;BMP280;29429;51.074;13.764;2023-07-20T07:39:30;99697.81;;;21.46
43802;BMP280;29429;51.074;13.764;2023-07-20T07:42:02;99702.59;;;21.69
43802;BMP280;29429;51.074;13.764;2023-07-20T07:44:29;99698.22;;;21.78
43802;BMP280;29429;51.074;13.764;2023-07-20T07:46:57;99694.97;;;21.71
43802;BMP280;29429;51.074;13.764;2023-07-20T07:49:24;99698.56;;;21.57
43802;BMP280;29429;51.074;13.764;2023-07-20T07:51:52;99705.09;;;21.51
43802;BMP280;29429;51.074;13.764;2023-07-20T07:54:19;99705.94;;;21.46
43802;BMP280;29429;51.074;13.764;2023-07-20T07:56:47;99715.22;;;21.30
43802;BMP280;29429;51.074;13.764;2023-07-20T07:59:15;99706.53;;;21.33
43802;BMP280;29429;51.074;13.764;2023-07-20T08:01:42;99715.69;;;21.47
43802;BMP280;29429;51.074;13.764;2023-07-20T08:04:09;99692.88;;;21.53
43802;BMP280;29429;51.074;13.764;2023-07-20T08:06:37;99693.38;;;21.65
43802;BMP280;29429;51.074;13.764;2023-07-20T08:09:04;99691.13;;;21.77
43802;BMP280;29429;51.074;13.764;2023-07-20T08:11:32;99686.00;;;21.76
43802;BMP280;29429;51.074;13.764;2023-07-20T08:14:01;99688.44;;;21.77
43802;BMP280;29429;51.074;13.764;2023-07-20T08:16:28;99700.09;;;21.78
43802;BMP280;29429;51.074;13.764;2023-07-20T08:18:56;99692.47;;;21.80
43802;BMP280;29429;51.074;13.764;2023-07-20T08:21:24;99689.25;;;21.78
43802;BMP280;29429;51.074;13.764;2023-07-20T08:23:51;99690.06;;;21.78
43802;BMP280;29429;51.074;13.764;2023-07-20T08:26:19;99699.34;;;21.67
43802;BMP280;29429;51.074;13.764;2023-07-20T08:28:50;99704.81;;;21.57
43802;BMP280;29429;51.074;13.764;2023-07-20T08:31:17;99696.16;;;21.45
43802;BMP280;29429;51.074;13.764;2023-07-20T08:33:45;99698.44;;;21.23
43802;BMP280;29429;51.074;13.764;2023-07-20T08:36:12;99703.31;;;21.16
43802;BMP280;29429;51.074;13.764;2023-07-20T08:38:40;99701.13;;;21.28
43802;BMP280;29429;51.074;13.764;2023-07-20T08:41:08;99699.97;;;21.44
43802;BMP280;29429;51.074;13.764;2023-07-20T08:43:38;99695.56;;;21.58
43802;BMP280;29429;51.074;13.764;2023-07-20T08:46:06;99695.50;;;21.78
43802;BMP280;29429;51.074;13.764;2023-07-20T08:48:33;99688.63;;;21.96
43802;BMP280;29429;51.074;13.764;2023-07-20T08:51:01;99678.81;;;22.00
43802;BMP280;29429;51.074;13.764;2023-07-20T08:53:33;99688.91;;;21.95
43802;BMP280;29429;51.074;13.764;2023-07-20T08:56:02;99685.69;;;21.88
43802;BMP280;29429;51.074;13.764;2023-07-20T08:58:31;99685.09;;;21.96
43802;BMP280;29429;51.074;13.764;2023-07-20T09:00:59;99686.66;;;22.07
43802;BMP280;29429;51.074;13.764;2023-07-20T09:03:29;99686.22;;;22.33
43802;BMP280;29429;51.074;13.764;2023-07-20T09:05:57;99692.53;;;22.58
43802;BMP280;29429;51.074;13.764;2023-07-20T09:08:25;99680.38;;;22.84
43802;BMP280;29429;51.074;13.764;2023-07-20T09:10:52;99681.22;;;23.08
43802;BMP280;29429;51.074;13.764;2023-07-20T09:13:20;99687.94;;;23.16
43802;BMP280;29429;51.074;13.764;2023-07-20T09:15:52;99681.44;;;23.12
43802;BMP280;29429;51.074;13.764;2023-07-20T09:18:27;99684.25;;;23.01
43802;BMP280;29429;51.074;13.764;2023-07-20T09:21:01;99687.81;;;23.02
43802;BMP280;29429;51.074;13.764;2023-07-20T09:23:37;99681.97;;;23.14
43802;BMP280;29429;51.074;13.764;2023-07-20T09:26:11;99675.78;;;23.32
43802;BMP280;29429;51.074;13.764;2023-07-20T09:29:00;99677.00;;;23.44
43802;BMP280;29429;51.074;13.764;2023-07-20T09:31:28;99678.72;;;23.40
43802;BMP280;29429;51.074;13.764;2023-07-20T09:34:10;99681.94;;;23.42
43802;BMP280;29429;51.074;13.764;2023-07-20T09:36:38;99680.72;;;23.30
43802;BMP280;29429;51.074;13.764;2023-07-20T09:39:09;99668.59;;;23.17
43802;BMP280;29429;51.074;13.764;2023-07-20T09:41:40;99680.84;;;23.15
43802;BMP280;29429;51.074;13.764;2023-07-20T09:44:16;99688.50;;;23.13
43802;BMP280;29429;51.074;13.764;2023-07-20T09:46:50;99692.63;;;23.10
43802;BMP280;29429;51.074;13.764;2023-07-20T09:49:21;99690.72;;;23.11
43802;BMP280;29429;51.074;13.764;2023-07-20T09:51:53;99696.03;;;22.97
43802;BMP280;29429;51.074;13.764;2023-07-20T09:54:22;99693.63;;;22.90
43802;BMP280;29429;51.074;13.764;2023-07-20T09:56:51;99690.78;;;22.77
43802;BMP280;29429;51.074;13.764;2023-07-20T09:59:20;99690.84;;;22.67
43802;BMP280;29429;51.074;13.764;2023-07-20T10:01:48;99697.47;;;22.51
43802;BMP280;29429;51.074;13.764;2023-07-20T10:04:17;99706.22;;;22.42
43802;BMP280;29429;51.074;13.764;2023-07-20T10:06:47;99716.97;;;22.29
43802;BMP280;29429;51.074;13.764;2023-07-20T10:09:17;99730.38;;;22.15
43802;BMP280;29429;51.074;13.764;2023-07-20T10:11:48;99742.72;;;21.88
43802;BMP280;29429;51.074;13.764;2023-07-20T10:14:46;99735.84;;;21.26
43802;BMP280;29429;51.074;13.764;2023-07-20T10:17:19;99726.38;;;20.93
43802;BMP280;29429;51.074;13.764;2023-07-20T10:19:51;99722.31;;;20.86
43802;BMP280;29429;51.074;13.764;2023-07-20T10:22:26;99720.94;;;20.73
43802;BMP280;29429;51.074;13.764;2023-07-20T10:24:54;99731.53;;;20.54
43802;BMP280;29429;51.074;13.764;2023-07-20T10:27:21;99731.00;;;20.47
43802;BMP280;29429;51.074;13.764;2023-07-20T10:29:50;99723.38;;;20.44
43802;BMP280;29429;51.074;13.764;2023-07-20T10:32:19;99726.09;;;20.49
43802;BMP280;29429;51.074;13.764;2023-07-20T10:34:55;99721.25;;;20.51
43802;BMP280;29429;51.074;13.764;2023-07-20T10:38:02;99727.22;;;20.53
43802;BMP280;29429;51.074;13.764;2023-07-20T10:40:39;99723.13;;;20.61
43802;BMP280;29429;51.074;13.764;2023-07-20T10:43:08;99730.44;;;20.65
43802;BMP280;29429;51.074;13.764;2023-07-20T10:45:41;99719.63;;;20.81
43802;BMP280;29429;51.074;13.764;2023-07-20T10:48:20;99711.72;;;20.94
43802;BMP280;29429;51.074;13.764;2023-07-20T10:51:12;99713.91;;;21.12
43802;BMP280;29429;51.074;13.764;2023-07-20T10:53:41;99714.13;;;21.26
43802;BMP280;29429;51.074;13.764;2023-07-20T10:56:11;99717.91;;;21.35
43802;BMP280;29429;51.074;13.764;2023-07-20T10:58:40;99715.72;;;21.37
43802;BMP280;29429;51.074;13.764;2023-07-20T11:01:14;99714.94;;;21.42
43802;BMP280;29429;51.074;13.764;2023-07-20T11:03:48;99707.50;;;21.62
43802;BMP280;29429;51.074;13.764;2023-07-20T11:09:11;99708.84;;;21.70
43802;BMP280;29429;51.074;13.764;2023-07-20T11:11:49;99700.41;;;21.66
43802;BMP280;29429;51.074;13.764;2023-07-20T11:14:26;99703.19;;;21.56
43802;BMP280;29429;51.074;13.764;2023-07-20T11:16:54;99706.97;;;21.55
43802;BMP280;29429;51.074;13.764;2023-07-20T11:19:25;99699.41;;;21.47
43802;BMP280;29429;51.074;13.764;2023-07-20T11:21:57;99702.13;;;21.52
43802;BMP280;29429;51.074;13.764;2023-07-20T11:24:31;99698.84;;;21.55
43802;BMP280;29429;51.074;13.764;2023-07-20T11:26:59;99698.50;;;21.72
43802;BMP280;29429;51.074;13.764;2023-07-20T11:29:28;99698.56;;;22.11
43802;BMP280;29429;51.074;13.764;2023-07-20T11:32:00;99697.25;;;22.47
43802;BMP280;29429;51.074;13.764;2023-07-20T11:34:31;99690.63;;;22.58
43802;BMP280;29429;51.074;13.764;2023-07-20T11:36:59;99679.47;;;22.60
43802;BMP280;29429;51.074;13.764;2023-07-20T11:39:30;99675.81;;;22.74
43802;BMP280;29429;51.074;13.764;2023-07-20T11:41:57;99678.78;;;22.78
43802;BMP280;29429;51.074;13.764;2023-07-20T11:44:27;99680.03;;;22.90
43802;BMP280;29429;51.074;13.764;2023-07-20T11:47:12;99680.44;;;23.02
43802;BMP280;29429;51.074;13.764;2023-07-20T11:49:41;99673.00;;;23.13
43802;BMP280;29429;51.074;13.764;2023-07-20T11:52:15;99671.78;;;23.24
43802;BMP280;29429;51.074;13.764;2023-07-20T11:54:43;99670.25;;;23.42
43802;BMP280;29429;51.074;13.764;2023-07-20T11:57:20;99670.81;;;23.39
43802;BMP280;29429;51.074;13.764;2023-07-20T11:59:58;99671.41;;;23.31
43802;BMP280;29429;51.074;13.764;2023-07-20T12:02:31;99680.22;;;23.23
43802;BMP280;29429;51.074;13.764;2023-07-20T12:04:59;99678.44;;;23.13
43802;BMP280;29429;51.074;13.764;2023-07-20T12:07:28;99679.94;;;23.00
43802;BMP280;29429;51.074;13.764;2023-07-20T12:10:12;99681.91;;;22.95
43802;BMP280;29429;51.074;13.764;2023-07-20T12:12:41;99677.34;;;22.85
43802;BMP280;29429;51.074;13.764;2023-07-20T12:15:16;99683.97;;;22.74
43802;BMP280;29429;51.074;13.764;2023-07-20T12:17:44;99693.41;;;22.48
43802;BMP280;29429;51.074;13.764;2023-07-20T12:20:13;99693.09;;;22.21
43802;BMP280;29429;51.074;13.764;2023-07-20T12:22:42;99701.13;;;21.97
43802;BMP280;29429;51.074;13.764;2023-07-20T12:25:10;99694.72;;;21.68
43802;BMP280;29429;51.074;13.764;2023-07-20T12:27:38;99709.22;;;21.43
43802;BMP280;29429;51.074;13.764;2023-07-20T12:30:06;99717.69;;;21.21
43802;BMP280;29429;51.074;13.764;2023-07-20T12:32:34;99717.16;;;21.04
43802;BMP280;29429;51.074;13.764;2023-07-20T12:35:01;99715.78;;;20.92
43802;BMP280;29429;51.074;13.764;2023-07-20T12:37:29;99720.69;;;20.80
43802;BMP280;29429;51.074;13.764;2023-07-20T12:39:56;99720.69;;;20.80
43802;BMP280;29429;51.074;13.764;2023-07-20T12:42:24;99725.59;;;20.78
43802;BMP280;29429;51.074;13.764;2023-07-20T12:44:52;99726.38;;;20.73
43802;BMP280;29429;51.074;13.764;2023-07-20T12:47:20;99730.72;;;20.64
43802;BMP280;29429;51.074;13.764;2023-07-20T12:49:47;99735.34;;;20.58
43802;BMP280;29429;51.074;13.764;2023-07-20T12:52:15;99729.66;;;20.65
43802;BMP280;29429;51.074;13.764;2023-07-20T12:54:43;99738.03;;;20.69
43802;BMP280;29429;51.074;13.764;2023-07-20T12:57:13;99748.34;;;20.72
43802;BMP280;29429;51.074;13.764;2023-07-20T12:59:40;99747.53;;;20.76
43802;BMP280;29429;51.074;13.764;2023-07-20T13:02:08;99739.41;;;20.91
43802;BMP280;29429;51.074;13.764;2023-07-20T13:04:35;99744.00;;;21.01
43802;BMP280;29429;51.074;13.764;2023-07-20T13:07:03;99744.28;;;21.14
43802;BMP280;29429;51.074;13.764;2023-07-20T13:09:50;99739.63;;;21.30
43802;BMP280;29429;51.074;13.764;2023-07-20T13:12:18;99742.03;;;21.52
43802;BMP280;29429;51.074;13.764;2023-07-20T13:14:46;99736.53;;;21.67
43802;BMP280;29429;51.074;13.764;2023-07-20T13:17:14;99718.59;;;21.76
43802;BMP280;29429;51.074;13.764;2023-07-20T13:19:42;99719.91;;;21.89
43802;BMP280;29429;51.074;13.764;2023-07-20T13:22:09;99713.38;;;21.90
43802;BMP280;29429;51.074;13.764;2023-07-20T13:24:38;99712.25;;;21.96
43802;BMP280;29429;51.074;13.764;2023-07-20T13:27:06;99705.19;;;22.00
43802;BMP280;29429;51.074;13.764;2023-07-20T13:29:38;99697.03;;;22.00
43802;BMP280;29429;51.074;13.764;2023-07-20T13:32:07;99702.72;;;21.98
43802;BMP280;29429;51.074;13.764;2023-07-20T13:34:34;99692.69;;;21.99
43802;BMP280;29429;51.074;13.764;2023-07-20T13:37:05;99697.59;;;21.97
43802;BMP280;29429;51.074;13.764;2023-07-20T13:39:33;99689.97;;;21.99
43802;BMP280;29429;51.074;13.764;2023-07-20T13:42:00;99694.28;;;22.05
43802;BMP280;29429;51.074;13.764;2023-07-20T13:44:34;99685.28;;;22.09
43802;BMP280;29429;51.074;13.764;2023-07-20T13:47:03;99685.69;;;22.31
43802;BMP280;29429;51.074;13.764;2023-07-20T13:49:35;99698.53;;;22.55
43802;BMP280;29429;51.074;13.764;2023-07-20T13:52:14;99688.44;;;22.65
43802;BMP280;29429;51.074;13.764;2023-07-20T13:54:50;99692.63;;;22.81
43802;BMP280;29429;51.074;13.764;2023-07-20T13:57:21;99687.91;;;22.92
43802;BMP280;29429;51.074;13.764;2023-07-20T13:59:49;99688.06;;;23.06
43802;BMP280;29429;51.074;13.764;2023-07-20T14:02:21;99695.53;;;23.19
43802;BMP280;29429;51.074;13.764;2023-07-20T14:04:57;99699.28;;;23.23
43802;BMP280;29429;51.074;13.764;2023-07-20T14:07:28;99699.69;;;23.40
43802;BMP280;29429;51.074;13.764;2023-07-20T14:09:57;99697.91;;;23.49
43802;BMP280;29429;51.074;13.764;2023-07-20T14:12:27;99697.84;;;23.54
43802;BMP280;29429;51.074;13.764;2023-07-20T14:14:56;99691.13;;;23.46
43802;BMP280;29429;51.074;13.764;2023-07-20T14:17:23;99698.66;;;23.31